Airfield :
LOGIN :

Register | Disclaimer

   EN    FR    IT 

 










Legend :    VFR   Marginal VFR   IFR   Intensive IFR   Very Intensive IFR
Visi :
Ceiling :
>= 8 km
>= 3000ft
5 to 8 km
1000 to 3000 ft
1500m to 5 km
500 to 1000 ft
800 to 1500m
200 to 500 ft
< 800m
< 200 ft
Symbols :   Thunderstorms  Fog  Heavy snow  Heavy precipitations  Wind > 20 kt
SIGMETs :     Misc.  Thunderstorms  Icing  Turbulence  Mountain Waves  Volcanic Ashes







- Airport Elevation : 2595 ft
- IATA code : SLM


LESA - Salamanca Matacan

CURRENT METAR :
  • 251700Z 29010KT 250V320 9999 FEW040TCU 32/19 Q1016

EXPIRED METARs :
  • 251630Z 29009KT 250V320 9999 FEW040CB 32/18 Q1016 RETS
  • 251600Z 30007KT 260V330 9999 FEW040TCU 33/18 Q1016
  • 251530Z 29009KT 250V330 9999 FEW040TCU 33/17 Q1016
  • 251500Z 30006KT 250V340 9999 FEW040TCU 33/18 Q1017
  • 251430Z VRB04KT 9999 FEW040 33/16 Q1017

TAF TAF LESA
Valid from the 25 at 18:00 until the 26 at 18:00 UTC


251700Z 2518/2618 VRB05KT CAVOK TX33/2616Z TN16/2605Z
TEMPO 2518/2520 FEW040TCU
PROB40
TEMPO 2518/2520 SHRA SCT040TCU
PROB30
TEMPO 2518/2519 VRB15G25KT 3000 TS SHRA SCT040CB
PROB40
TEMPO 2613/2618 SHRA SCT040TCU
PROB30
TEMPO 2614/2618 VRB15G25KT 3000 TS SHRA SCT040CB
No reported NOTAMs for that airfield.
1 SIGMET reported for the Madrid FIR (LECM) :
 
Embedded thunderstorms
LECM SIGMET 6 VALID 251544/251800 LEVA
LECM MADRID FIR/UIR EMBD TS OBS AT 1544Z WI N4002 W00521 - N4139 W00226 - N4307 W00407 - N4201 W00640 - N4002 W00521 TOP FL420 MOV N 10KT NC=



MET'MAP, your aeronautical weather chart ! - Copyright ORBIFLY December 2007 - Disclaimer

ORBIFLY MET'MAP TEAM :

Programming & Development : Alexandra Zaïnal
Concept & Development : Baudouin d'Aumeries
Co-Development & Prog : Marc-Olivier Méhu
Technical & hardware support : Manuel Goepfert

Contact : metmap@orbifly.com




SOURCES & CREDITS :

   NOAA